createdAt,value
2019-02-25T00:04:14.263Z,5.70
2019-02-25T00:06:54.950Z,5.70
2019-02-25T00:09:36.316Z,5.60
2019-02-25T00:12:17.884Z,5.60
2019-02-25T00:14:58.911Z,5.40
2019-02-25T00:17:40.166Z,5.40
2019-02-25T00:20:21.666Z,5.50
2019-02-25T00:23:04.084Z,5.50
2019-02-25T00:25:48.288Z,5.10
2019-02-25T00:28:32.136Z,4.90
2019-02-25T00:31:13.511Z,4.80
2019-02-25T00:33:55.041Z,4.80
2019-02-25T00:36:36.346Z,4.70
2019-02-25T00:39:17.137Z,4.70
2019-02-25T00:41:58.710Z,4.60
2019-02-25T00:45:03.209Z,4.50
2019-02-25T00:47:44.107Z,4.70
2019-02-25T00:50:25.253Z,4.80
2019-02-25T00:53:06.541Z,4.80
2019-02-25T00:55:48.013Z,5.00
2019-02-25T00:58:29.690Z,5.10
2019-02-25T01:01:10.213Z,5.20
2019-02-25T01:03:51.772Z,5.10
2019-02-25T01:06:33.276Z,5.10
2019-02-25T01:09:15.123Z,5.10
2019-02-25T01:11:56.343Z,4.70
2019-02-25T01:14:37.412Z,4.30
2019-02-25T01:17:18.842Z,4.00
2019-02-25T01:20:00.250Z,3.90
2019-02-25T01:22:41.559Z,4.00
2019-02-25T01:25:27.272Z,4.30
2019-02-25T01:27:56.873Z,4.20
2019-02-25T01:31:04.387Z,3.90
2019-02-25T01:34:13.301Z,3.90
2019-02-25T01:36:54.032Z,3.80
2019-02-25T01:39:34.652Z,4.00
2019-02-25T01:42:15.290Z,4.20
2019-02-25T01:45:11.470Z,3.80
2019-02-25T01:47:52.332Z,3.80
2019-02-25T01:50:39.607Z,4.00
2019-02-25T01:53:20.538Z,3.90
2019-02-25T01:56:01.515Z,4.00
2019-02-25T01:58:42.667Z,4.20
2019-02-25T02:01:24.356Z,4.30
2019-02-25T02:04:05.735Z,4.20
2019-02-25T02:06:35.297Z,4.40
2019-02-25T02:09:16.157Z,4.40
2019-02-25T02:11:56.878Z,4.50
2019-02-25T02:14:38.666Z,4.40
2019-02-25T02:17:08.222Z,4.40
2019-02-25T02:19:56.840Z,4.40
2019-02-25T02:22:45.330Z,4.40
2019-02-25T02:25:26.836Z,4.40
2019-02-25T02:30:38.669Z,4.20
2019-02-25T02:33:27.202Z,4.30
2019-02-25T02:36:08.029Z,4.40
2019-02-25T02:42:02.774Z,4.70
2019-02-25T02:44:42.373Z,4.70
2019-02-25T02:47:23.285Z,4.60
2019-02-25T02:50:04.696Z,4.60
2019-02-25T02:52:46.042Z,4.50
2019-02-25T02:55:26.739Z,4.60
2019-02-25T02:58:08.121Z,4.70
2019-02-25T03:00:49.697Z,4.70
2019-02-25T03:03:31.261Z,4.60
2019-02-25T03:06:11.979Z,4.70
2019-02-25T03:08:53.144Z,4.80
2019-02-25T03:11:34.488Z,4.80
2019-02-25T03:14:15.919Z,4.70
2019-02-25T03:17:04.473Z,4.80
2019-02-25T03:19:45.826Z,4.70
2019-02-25T03:22:26.995Z,4.80
2019-02-25T03:25:07.767Z,4.80
2019-02-25T03:27:49.029Z,4.90
2019-02-25T03:30:30.401Z,5.00
2019-02-25T03:33:10.952Z,5.00
2019-02-25T03:35:52.330Z,4.70
2019-02-25T03:38:33.629Z,4.10
2019-02-25T03:41:03.043Z,4.00
2019-02-25T03:43:51.473Z,3.60
2019-02-25T03:46:32.819Z,3.80
2019-02-25T03:49:23.565Z,3.90
2019-02-25T03:52:04.474Z,4.00
2019-02-25T03:54:45.860Z,4.10
2019-02-25T03:57:26.472Z,4.20
2019-02-25T04:00:07.294Z,4.10
2019-02-25T04:02:48.134Z,3.80
2019-02-25T04:05:29.006Z,3.60
2019-02-25T04:08:10.067Z,3.80
2019-02-25T04:10:51.374Z,4.10
2019-02-25T04:13:32.921Z,4.40
2019-02-25T04:16:13.654Z,4.60
2019-02-25T04:18:55.121Z,4.60
2019-02-25T04:21:36.178Z,4.70
2019-02-25T04:24:19.987Z,4.70
2019-02-25T04:27:00.718Z,4.70
2019-02-25T04:29:48.482Z,4.80
2019-02-25T04:32:29.621Z,4.70
2019-02-25T04:35:11.166Z,4.60
2019-02-25T04:37:53.127Z,4.60
2019-02-25T04:40:34.190Z,4.40
2019-02-25T04:43:15.041Z,4.20
2019-02-25T04:45:56.579Z,4.20
2019-02-25T04:48:37.152Z,4.20
2019-02-25T04:51:18.535Z,4.20
2019-02-25T04:54:00.202Z,4.30
2019-02-25T04:56:29.598Z,4.10
2019-02-25T04:58:59.030Z,3.90
2019-02-25T05:01:28.404Z,3.90
2019-02-25T05:03:57.851Z,3.90
2019-02-25T05:06:27.205Z,3.80
2019-02-25T05:08:56.573Z,3.80
2019-02-25T05:11:30.203Z,3.80
2019-02-25T05:13:59.513Z,4.00
2019-02-25T05:16:28.996Z,4.00
2019-02-25T05:18:58.391Z,4.00
2019-02-25T05:21:27.711Z,4.00
2019-02-25T05:23:57.087Z,4.10
2019-02-25T05:26:26.502Z,4.00
2019-02-25T05:28:55.969Z,4.10
2019-02-25T05:31:25.338Z,4.10
2019-02-25T05:33:54.766Z,4.10
2019-02-25T05:36:24.336Z,4.20
2019-02-25T05:38:53.716Z,4.20
2019-02-25T05:41:23.207Z,4.20
2019-02-25T05:43:52.643Z,4.20
2019-02-25T05:46:22.104Z,4.20
2019-02-25T05:48:51.446Z,4.10
2019-02-25T05:51:20.970Z,3.90
2019-02-25T05:53:50.443Z,4.00
2019-02-25T05:56:19.787Z,4.00
2019-02-25T05:58:49.164Z,4.00
2019-02-25T06:01:18.664Z,4.00
2019-02-25T06:03:48.033Z,4.00
2019-02-25T06:06:17.547Z,3.90
2019-02-25T06:08:46.965Z,3.70
2019-02-25T06:11:35.373Z,3.70
2019-02-25T06:14:23.784Z,3.80
2019-02-25T06:17:05.430Z,3.80
2019-02-25T06:19:48.628Z,3.90
2019-02-25T06:22:33.391Z,4.00
2019-02-25T06:25:14.379Z,4.00
2019-02-25T06:27:55.862Z,4.00
2019-02-25T06:30:37.243Z,3.90
2019-02-25T06:33:18.649Z,4.00
2019-02-25T06:36:00.237Z,4.10
2019-02-25T06:38:41.773Z,4.00
2019-02-25T06:41:24.907Z,4.10
2019-02-25T06:44:07.825Z,4.10
2019-02-25T06:46:49.301Z,4.20
2019-02-25T06:49:29.939Z,4.30
2019-02-25T06:52:11.179Z,4.20
2019-02-25T06:54:52.464Z,4.30
2019-02-25T06:57:34.064Z,4.50
2019-02-25T07:00:15.348Z,4.60
2019-02-25T07:04:08.597Z,4.70
2019-02-25T07:06:11.026Z,4.80
2019-02-25T07:09:17.330Z,4.80
2019-02-25T07:12:20.430Z,4.80
2019-02-25T07:18:28.198Z,4.90
2019-02-25T07:21:28.123Z,4.90
2019-02-25T07:24:22.845Z,4.90
2019-02-25T07:27:16.442Z,5.00
2019-02-25T07:30:23.751Z,5.00
2019-02-25T07:33:11.985Z,5.20
2019-02-25T07:36:38.454Z,5.30
2019-02-25T07:39:38.717Z,5.30
2019-02-25T07:42:33.826Z,5.30
2019-02-25T07:48:25.141Z,5.60
2019-02-25T07:51:28.183Z,5.70
2019-02-25T07:54:30.936Z,5.80
2019-02-25T07:57:33.538Z,6.00
2019-02-25T08:00:38.912Z,6.10
2019-02-25T08:03:39.315Z,6.10
2019-02-25T08:06:39.646Z,6.10
2019-02-25T08:09:46.479Z,6.10
2019-02-25T08:12:54.056Z,6.40
2019-02-25T08:16:00.985Z,6.50
2019-02-25T08:22:23.313Z,6.70
2019-02-25T08:25:26.933Z,6.90
2019-02-25T08:28:32.704Z,7.00
2019-02-25T08:31:32.441Z,7.20
2019-02-25T08:34:31.970Z,7.30
2019-02-25T08:37:19.780Z,7.40
2019-02-25T08:40:08.139Z,7.50
2019-02-25T08:43:08.737Z,7.70
2019-02-25T08:46:03.159Z,7.70
2019-02-25T08:48:50.918Z,7.80
2019-02-25T08:51:35.705Z,7.90
2019-02-25T08:54:17.762Z,8.10
2019-02-25T08:57:03.834Z,8.20
2019-02-25T08:59:33.251Z,8.30
2019-02-25T09:02:22.466Z,8.40
2019-02-25T09:05:07.920Z,8.40
2019-02-25T09:07:49.007Z,8.60
2019-02-25T09:10:18.480Z,8.50
2019-02-25T09:13:07.738Z,8.70
2019-02-25T09:18:42.728Z,8.90
2019-02-25T09:21:31.399Z,8.90
2019-02-25T09:24:16.601Z,9.00
2019-02-25T09:26:59.154Z,9.20
2019-02-25T09:29:40.082Z,9.30
2019-02-25T09:35:08.049Z,9.40
2019-02-25T09:38:10.798Z,9.30
2019-02-25T09:40:52.199Z,9.40
2019-02-25T09:43:37.873Z,9.60
2019-02-25T09:46:25.331Z,9.70
2019-02-25T09:49:06.295Z,9.80
2019-02-25T09:54:30.065Z,9.90
2019-02-25T09:57:26.921Z,9.90
2019-02-25T10:00:07.852Z,9.90
2019-02-25T10:02:56.536Z,10.00
2019-02-25T10:05:43.741Z,10.00
2019-02-25T10:08:26.522Z,10.10
2019-02-25T10:11:07.551Z,10.30
2019-02-25T10:13:49.045Z,10.50
2019-02-25T10:16:30.453Z,10.50
2019-02-25T10:19:12.030Z,10.50
2019-02-25T10:21:53.104Z,10.60
2019-02-25T10:24:34.486Z,10.60
2019-02-25T10:27:22.192Z,10.60
2019-02-25T10:30:26.111Z,10.70
2019-02-25T10:33:07.021Z,10.80
2019-02-25T10:35:52.987Z,11.00
2019-02-25T10:38:38.322Z,11.00
2019-02-25T10:41:21.195Z,11.10
2019-02-25T10:44:06.538Z,11.10
2019-02-25T10:46:49.074Z,11.20
2019-02-25T10:49:31.414Z,11.30
2019-02-25T10:52:13.379Z,11.40
2019-02-25T10:54:56.587Z,11.40
2019-02-25T10:57:38.342Z,11.50
2019-02-25T11:00:22.870Z,11.50
2019-02-25T11:03:06.734Z,11.50
2019-02-25T11:05:47.726Z,11.60
2019-02-25T11:08:45.638Z,11.70
2019-02-25T11:12:05.310Z,11.70
2019-02-25T11:14:55.658Z,11.80
2019-02-25T11:17:39.497Z,11.90
2019-02-25T11:20:20.536Z,11.90
2019-02-25T11:23:12.838Z,12.00
2019-02-25T11:25:56.191Z,12.10
2019-02-25T11:28:43.733Z,12.10
2019-02-25T11:31:33.355Z,12.30
2019-02-25T11:34:17.942Z,12.50
2019-02-25T11:36:59.527Z,12.50
2019-02-25T11:39:41.314Z,12.70
2019-02-25T11:42:37.606Z,12.60
2019-02-25T11:45:29.066Z,12.50
2019-02-25T11:48:17.667Z,12.50
2019-02-25T11:51:02.136Z,12.50
2019-02-25T11:53:44.274Z,12.70
2019-02-25T11:56:27.616Z,12.80
2019-02-25T11:59:10.985Z,12.80
2019-02-25T12:01:52.731Z,12.80
2019-02-25T12:04:34.191Z,12.80
2019-02-25T12:07:21.341Z,12.80
2019-02-25T12:10:09.886Z,12.90
2019-02-25T12:15:42.527Z,13.00
2019-02-25T12:18:39.269Z,13.00
2019-02-25T12:24:31.917Z,13.30
2019-02-25T12:27:13.340Z,13.40
2019-02-25T12:32:56.066Z,13.40
2019-02-25T12:35:37.682Z,13.50
2019-02-25T12:38:31.684Z,13.60
2019-02-25T12:44:35.362Z,13.60
2019-02-25T12:47:18.784Z,13.70
2019-02-25T12:52:53.694Z,13.80
2019-02-25T12:55:42.171Z,13.90
2019-02-25T12:58:23.744Z,13.90
2019-02-25T13:01:05.224Z,13.90
2019-02-25T13:03:47.477Z,14.00
2019-02-25T13:06:32.359Z,14.10
2019-02-25T13:09:13.760Z,14.10
2019-02-25T13:11:43.555Z,14.10
2019-02-25T13:14:53.450Z,14.30
2019-02-25T13:17:24.585Z,14.30
2019-02-25T13:20:43.041Z,14.30
2019-02-25T13:23:03.560Z,14.30
2019-02-25T13:26:04.946Z,14.30
2019-02-25T13:28:40.117Z,14.30
2019-02-25T13:31:21.044Z,14.30
2019-02-25T13:34:02.198Z,14.30
2019-02-25T13:36:42.992Z,14.40
2019-02-25T13:39:28.743Z,14.40
2019-02-25T13:42:10.152Z,14.50
2019-02-25T13:44:51.769Z,14.60
2019-02-25T13:47:32.695Z,14.60
2019-02-25T13:50:14.196Z,14.70
2019-02-25T13:52:56.182Z,14.70
2019-02-25T13:55:37.989Z,14.70
2019-02-25T13:58:19.450Z,14.80
2019-02-25T14:01:01.206Z,14.70
2019-02-25T14:03:44.992Z,14.60
2019-02-25T14:06:28.296Z,14.50
2019-02-25T14:09:08.269Z,14.40
2019-02-25T14:11:49.707Z,14.30
2019-02-25T14:17:42.071Z,14.20
2019-02-25T14:20:18.175Z,14.10
2019-02-25T14:25:41.702Z,14.10
2019-02-25T14:28:50.858Z,14.10
2019-02-25T14:35:11.230Z,14.00
2019-02-25T14:37:40.948Z,14.10
2019-02-25T14:40:32.487Z,14.20
2019-02-25T14:45:56.872Z,14.20
2019-02-25T14:48:48.889Z,14.20
2019-02-25T14:51:29.948Z,14.20
2019-02-25T14:56:57.478Z,14.10
2019-02-25T15:02:20.564Z,14.00
2019-02-25T15:05:10.517Z,14.10
2019-02-25T15:07:58.411Z,14.10
2019-02-25T15:10:43.198Z,14.00
2019-02-25T15:13:44.643Z,14.10
2019-02-25T15:16:34.513Z,14.10
2019-02-25T15:19:15.483Z,14.00
2019-02-25T15:22:00.943Z,13.90
2019-02-25T15:31:16.327Z,14.00
2019-02-25T15:36:29.044Z,13.80
2019-02-25T15:39:41.728Z,13.70
2019-02-25T15:45:04.462Z,13.70
2019-02-25T15:48:13.068Z,13.60
2019-02-25T15:54:11.150Z,13.40
2019-02-25T15:56:59.663Z,13.30
2019-02-25T15:59:48.819Z,13.30
2019-02-25T16:03:21.864Z,13.20
2019-02-25T16:08:42.296Z,13.10
2019-02-25T16:11:27.044Z,13.00
2019-02-25T16:14:16.214Z,13.00
2019-02-25T16:20:04.408Z,12.90
2019-02-25T16:22:45.542Z,12.80
2019-02-25T16:25:27.600Z,12.70
2019-02-25T16:28:10.311Z,12.70
2019-02-25T16:31:20.260Z,12.70
2019-02-25T16:34:01.200Z,12.60
2019-02-25T16:36:42.276Z,12.50
2019-02-25T16:42:26.293Z,12.40
2019-02-25T16:45:37.278Z,12.30
2019-02-25T16:52:03.671Z,12.20
2019-02-25T16:54:45.331Z,12.10
2019-02-25T16:57:27.470Z,12.00
2019-02-25T17:00:10.143Z,12.00
2019-02-25T17:02:40.567Z,11.90
2019-02-25T17:05:30.245Z,11.80
2019-02-25T17:08:15.196Z,11.70
2019-02-25T17:10:57.887Z,11.70
2019-02-25T17:13:41.346Z,11.60
2019-02-25T17:16:24.157Z,11.50
2019-02-25T17:19:06.528Z,11.50
2019-02-25T17:21:47.314Z,11.40
2019-02-25T17:24:17.211Z,11.40
2019-02-25T17:30:08.080Z,11.30
2019-02-25T17:32:51.861Z,11.30
2019-02-25T17:35:23.590Z,11.30
2019-02-25T17:38:11.653Z,11.20
2019-02-25T17:40:54.926Z,11.20
2019-02-25T17:43:36.362Z,11.20
2019-02-25T17:46:17.816Z,11.20
2019-02-25T17:48:58.654Z,11.20
2019-02-25T17:51:40.011Z,11.20
2019-02-25T17:54:21.553Z,11.20
2019-02-25T18:06:29.582Z,11.10
2019-02-25T18:09:07.241Z,11.10
2019-02-25T18:11:49.186Z,11.00
2019-02-25T18:14:33.484Z,11.00
2019-02-25T18:17:16.688Z,11.00
2019-02-25T18:23:11.806Z,11.00
2019-02-25T18:25:44.257Z,10.90
2019-02-25T18:35:26.263Z,11.00
2019-02-25T18:38:11.937Z,11.10
2019-02-25T18:43:43.428Z,10.90
2019-02-25T18:46:27.266Z,10.80
2019-02-25T18:49:11.532Z,10.80
2019-02-25T18:51:52.522Z,10.80
2019-02-25T18:54:25.014Z,10.80
2019-02-25T18:57:33.035Z,10.80
2019-02-25T19:00:15.206Z,10.80
2019-02-25T19:05:31.559Z,10.80
2019-02-25T19:11:45.057Z,10.60
2019-02-25T19:14:28.847Z,10.50
2019-02-25T19:17:12.814Z,10.40
2019-02-25T19:20:06.254Z,10.40
2019-02-25T19:22:53.174Z,10.30
2019-02-25T19:25:42.148Z,10.40
2019-02-25T19:28:26.075Z,10.30
2019-02-25T19:31:08.971Z,10.30
2019-02-25T19:33:50.465Z,10.10
2019-02-25T19:36:41.243Z,10.00
2019-02-25T19:39:43.990Z,10.00
2019-02-25T19:42:18.253Z,9.80
2019-02-25T19:45:09.979Z,9.80
2019-02-25T19:47:41.103Z,9.80
2019-02-25T19:53:11.960Z,9.70
2019-02-25T19:55:44.007Z,9.80
2019-02-25T19:58:34.160Z,9.80
2019-02-25T20:01:15.053Z,9.70
2019-02-25T20:03:48.408Z,9.70
2019-02-25T20:06:20.916Z,9.70
2019-02-25T20:11:42.821Z,9.60
2019-02-25T20:14:24.232Z,9.60
2019-02-25T20:17:09.905Z,9.50
2019-02-25T20:19:52.269Z,9.50
2019-02-25T20:22:34.465Z,9.50
2019-02-25T20:28:07.406Z,9.60
2019-02-25T20:30:49.423Z,9.60
2019-02-25T20:33:33.051Z,9.60
2019-02-25T20:36:17.171Z,9.60
2019-02-25T20:42:06.900Z,9.60
2019-02-25T20:44:55.279Z,9.50
2019-02-25T20:47:38.307Z,9.50
2019-02-25T20:50:25.793Z,9.50
2019-02-25T20:56:42.093Z,9.40
2019-02-25T20:59:25.883Z,9.40
2019-02-25T21:02:30.767Z,9.40
2019-02-25T21:05:14.167Z,9.30
2019-02-25T21:11:39.180Z,9.30
2019-02-25T21:14:45.192Z,9.30
2019-02-25T21:17:37.851Z,9.30
2019-02-25T21:20:21.325Z,9.20
2019-02-25T21:23:10.691Z,9.30
2019-02-25T21:28:58.487Z,9.20
2019-02-25T21:35:04.432Z,9.40
2019-02-25T21:38:05.916Z,9.30
2019-02-25T21:40:48.449Z,9.20
2019-02-25T21:46:54.023Z,9.10
2019-02-25T21:49:36.467Z,9.20
2019-02-25T21:52:26.519Z,9.30
2019-02-25T21:54:57.999Z,9.40
2019-02-25T21:57:49.292Z,9.40
2019-02-25T22:03:30.244Z,9.30
2019-02-25T22:06:11.127Z,9.20
2019-02-25T22:09:14.754Z,9.30
2019-02-25T22:12:02.045Z,9.40
2019-02-25T22:18:11.247Z,9.60
2019-02-25T22:24:05.081Z,9.60
2019-02-25T22:26:46.565Z,9.50
2019-02-25T22:29:40.851Z,9.40
2019-02-25T22:32:35.988Z,9.40
2019-02-25T22:35:28.770Z,9.30
2019-02-25T22:38:11.812Z,9.40
2019-02-25T22:40:53.586Z,9.50
2019-02-25T22:43:43.194Z,9.60
2019-02-25T22:46:23.522Z,9.70
2019-02-25T22:49:26.669Z,9.60
2019-02-25T22:52:07.615Z,9.50
2019-02-25T22:55:10.096Z,9.50
2019-02-25T22:57:54.080Z,9.50
2019-02-25T23:00:58.296Z,9.40
2019-02-25T23:03:42.929Z,9.40
2019-02-25T23:06:23.608Z,9.40
2019-02-25T23:08:55.572Z,9.40
2019-02-25T23:12:31.067Z,9.40
2019-02-25T23:15:18.647Z,9.40
2019-02-25T23:18:05.299Z,9.40
2019-02-25T23:20:50.484Z,9.30
2019-02-25T23:33:22.028Z,9.40
2019-02-25T23:36:40.705Z,9.50
2019-02-25T23:39:22.052Z,9.50
2019-02-25T23:42:09.797Z,9.30
2019-02-25T23:44:57.439Z,9.30
2019-02-25T23:47:40.267Z,9.40
2019-02-25T23:50:22.408Z,9.40
2019-02-25T23:53:10.672Z,9.40
2019-02-25T23:59:14.632Z,9.40
